sensor_id;sensor_type;location;lat;lon;timestamp;pressure;altitude;pressure_sealevel;temperature;humidity
70229;BME280;57617;51.988;5.854;2022-10-30T00:01:18;101242.25;;;19.61;62.90
70229;BME280;57617;51.988;5.854;2022-10-30T00:03:44;101233.44;;;19.59;62.71
70229;BME280;57617;51.988;5.854;2022-10-30T00:06:09;101234.25;;;19.60;62.65
70229;BME280;57617;51.988;5.854;2022-10-30T00:08:35;101240.91;;;19.59;62.67
70229;BME280;57617;51.988;5.854;2022-10-30T00:11:05;101235.91;;;19.61;62.67
70229;BME280;57617;51.988;5.854;2022-10-30T00:13:30;101238.13;;;19.59;62.73
70229;BME280;57617;51.988;5.854;2022-10-30T00:15:55;101243.09;;;19.57;62.66
70229;BME280;57617;51.988;5.854;2022-10-30T00:18:21;101235.72;;;19.52;62.77
70229;BME280;57617;51.988;5.854;2022-10-30T00:20:47;101239.28;;;19.53;63.01
70229;BME280;57617;51.988;5.854;2022-10-30T00:23:12;101238.47;;;19.52;63.08
70229;BME280;57617;51.988;5.854;2022-10-30T00:25:37;101236.00;;;19.51;63.04
70229;BME280;57617;51.988;5.854;2022-10-30T00:28:04;101236.56;;;19.48;62.93
70229;BME280;57617;51.988;5.854;2022-10-30T00:30:30;101234.13;;;19.46;62.91
70229;BME280;57617;51.988;5.854;2022-10-30T00:32:56;101236.59;;;19.43;62.99
70229;BME280;57617;51.988;5.854;2022-10-30T00:35:21;101242.09;;;19.43;62.58
70229;BME280;57617;51.988;5.854;2022-10-30T00:37:46;101236.06;;;19.41;63.31
70229;BME280;57617;51.988;5.854;2022-10-30T00:40:13;101221.50;;;19.35;63.09
70229;BME280;57617;51.988;5.854;2022-10-30T00:42:40;101228.09;;;19.39;62.88
70229;BME280;57617;51.988;5.854;2022-10-30T00:45:05;101229.72;;;19.40;62.87
70229;BME280;57617;51.988;5.854;2022-10-30T00:47:35;101234.72;;;19.38;62.97
70229;BME280;57617;51.988;5.854;2022-10-30T00:50:06;101233.09;;;19.37;62.99
70229;BME280;57617;51.988;5.854;2022-10-30T00:52:35;101233.38;;;19.36;63.01
70229;BME280;57617;51.988;5.854;2022-10-30T00:55:06;101224.59;;;19.34;63.02
70229;BME280;57617;51.988;5.854;2022-10-30T00:57:33;101232.28;;;19.32;63.07
70229;BME280;57617;51.988;5.854;2022-10-30T00:59:59;101228.72;;;19.31;63.07
70229;BME280;57617;51.988;5.854;2022-10-30T01:02:25;101230.66;;;19.31;63.03
70229;BME280;57617;51.988;5.854;2022-10-30T01:04:52;101224.91;;;19.27;63.16
70229;BME280;57617;51.988;5.854;2022-10-30T01:07:18;101223.81;;;19.23;63.05
70229;BME280;57617;51.988;5.854;2022-10-30T01:09:45;101222.19;;;19.22;63.21
70229;BME280;57617;51.988;5.854;2022-10-30T01:12:11;101220.28;;;19.18;63.27
70229;BME280;57617;51.988;5.854;2022-10-30T01:14:40;101228.25;;;19.14;63.56
70229;BME280;57617;51.988;5.854;2022-10-30T01:17:14;101224.47;;;19.10;63.55
70229;BME280;57617;51.988;5.854;2022-10-30T01:19:53;101227.50;;;19.09;63.63
70229;BME280;57617;51.988;5.854;2022-10-30T01:22:43;101227.78;;;19.07;63.47
70229;BME280;57617;51.988;5.854;2022-10-30T01:27:55;101226.41;;;19.05;63.70
70229;BME280;57617;51.988;5.854;2022-10-30T01:30:36;101223.13;;;19.03;63.96
70229;BME280;57617;51.988;5.854;2022-10-30T01:33:20;101230.03;;;19.00;63.46
70229;BME280;57617;51.988;5.854;2022-10-30T01:38:29;101243.81;;;19.00;63.70
70229;BME280;57617;51.988;5.854;2022-10-30T01:40:57;101236.34;;;19.01;63.50
70229;BME280;57617;51.988;5.854;2022-10-30T01:43:22;101243.81;;;19.00;63.70
70229;BME280;57617;51.988;5.854;2022-10-30T01:54:31;101246.38;;;18.82;63.89
70229;BME280;57617;51.988;5.854;2022-10-30T01:57:07;101233.75;;;18.76;64.01
70229;BME280;57617;51.988;5.854;2022-10-30T01:59:44;101236.81;;;18.74;64.17
70229;BME280;57617;51.988;5.854;2022-10-30T02:02:12;101235.72;;;18.70;64.15
70229;BME280;57617;51.988;5.854;2022-10-30T02:04:38;101232.72;;;18.72;64.20
70229;BME280;57617;51.988;5.854;2022-10-30T02:07:03;101232.16;;;18.70;64.04
70229;BME280;57617;51.988;5.854;2022-10-30T02:09:29;101228.88;;;18.68;64.29
70229;BME280;57617;51.988;5.854;2022-10-30T02:11:55;101231.91;;;18.66;64.18
70229;BME280;57617;51.988;5.854;2022-10-30T02:14:27;101233.00;;;18.65;64.19
70229;BME280;57617;51.988;5.854;2022-10-30T02:16:56;101228.91;;;18.63;64.18
70229;BME280;57617;51.988;5.854;2022-10-30T02:19:22;101234.16;;;18.59;64.15
70229;BME280;57617;51.988;5.854;2022-10-30T02:21:48;101216.59;;;18.45;64.42
70229;BME280;57617;51.988;5.854;2022-10-30T02:24:14;101241.84;;;18.57;64.21
70229;BME280;57617;51.988;5.854;2022-10-30T02:26:39;101231.69;;;18.53;64.45
70229;BME280;57617;51.988;5.854;2022-10-30T02:29:04;101246.53;;;18.57;64.55
70229;BME280;57617;51.988;5.854;2022-10-30T02:31:30;101246.53;;;18.57;64.57
70229;BME280;57617;51.988;5.854;2022-10-30T02:33:55;101245.44;;;18.58;64.42
70229;BME280;57617;51.988;5.854;2022-10-30T02:36:20;101241.59;;;18.54;64.41
70229;BME280;57617;51.988;5.854;2022-10-30T02:38:46;101250.41;;;18.51;64.53
70229;BME280;57617;51.988;5.854;2022-10-30T02:41:11;101243.00;;;18.46;64.77
70229;BME280;57617;51.988;5.854;2022-10-30T02:43:36;101220.78;;;18.27;64.81
70229;BME280;57617;51.988;5.854;2022-10-30T02:46:02;101239.44;;;18.41;64.92
70229;BME280;57617;51.988;5.854;2022-10-30T02:48:29;101236.44;;;18.37;64.88
70229;BME280;57617;51.988;5.854;2022-10-30T02:50:58;101235.38;;;18.33;65.28
70229;BME280;57617;51.988;5.854;2022-10-30T02:53:24;101248.53;;;18.31;65.20
70229;BME280;57617;51.988;5.854;2022-10-30T02:55:49;101247.44;;;18.27;65.39
70229;BME280;57617;51.988;5.854;2022-10-30T02:58:14;101246.91;;;18.25;65.76
70229;BME280;57617;51.988;5.854;2022-10-30T03:00:39;101257.06;;;18.24;65.37
70229;BME280;57617;51.988;5.854;2022-10-30T03:03:05;101263.69;;;18.23;65.42
70229;BME280;57617;51.988;5.854;2022-10-30T03:05:30;101261.50;;;18.26;65.48
70229;BME280;57617;51.988;5.854;2022-10-30T03:07:55;101260.66;;;18.25;65.54
70229;BME280;57617;51.988;5.854;2022-10-30T03:10:20;101266.44;;;18.23;65.61
70229;BME280;57617;51.988;5.854;2022-10-30T03:12:46;101257.41;;;18.18;65.53
70229;BME280;57617;51.988;5.854;2022-10-30T03:15:11;101263.69;;;18.23;66.18
70229;BME280;57617;51.988;5.854;2022-10-30T03:17:36;101266.72;;;18.22;65.50
70229;BME280;57617;51.988;5.854;2022-10-30T03:20:01;101254.34;;;18.19;65.64
70229;BME280;57617;51.988;5.854;2022-10-30T03:22:27;101253.81;;;18.17;65.75
70229;BME280;57617;51.988;5.854;2022-10-30T03:24:52;101259.03;;;18.19;65.39
70229;BME280;57617;51.988;5.854;2022-10-30T03:27:17;101262.06;;;18.17;65.63
70229;BME280;57617;51.988;5.854;2022-10-30T03:29:42;101259.06;;;18.14;65.68
70229;BME280;57617;51.988;5.854;2022-10-30T03:32:09;101253.00;;;18.12;65.61
70229;BME280;57617;51.988;5.854;2022-10-30T03:34:35;101253.81;;;18.13;65.28
70229;BME280;57617;51.988;5.854;2022-10-30T03:37:00;101264.28;;;18.11;65.96
70229;BME280;57617;51.988;5.854;2022-10-30T03:39:25;101259.06;;;18.09;65.79
70229;BME280;57617;51.988;5.854;2022-10-30T03:41:51;101256.59;;;18.08;65.88
70229;BME280;57617;51.988;5.854;2022-10-30T03:44:16;101253.00;;;18.07;65.83
70229;BME280;57617;51.988;5.854;2022-10-30T03:46:41;101257.13;;;18.09;65.64
70229;BME280;57617;51.988;5.854;2022-10-30T03:49:06;101262.91;;;18.08;65.75
70229;BME280;57617;51.988;5.854;2022-10-30T03:51:32;101258.50;;;18.07;65.59
70229;BME280;57617;51.988;5.854;2022-10-30T03:53:57;101260.72;;;18.05;65.79
70229;BME280;57617;51.988;5.854;2022-10-30T03:56:22;101258.25;;;18.03;65.83
70229;BME280;57617;51.988;5.854;2022-10-30T03:58:47;101254.97;;;18.02;65.74
70229;BME280;57617;51.988;5.854;2022-10-30T04:01:13;101261.84;;;17.99;66.00
70229;BME280;57617;51.988;5.854;2022-10-30T04:03:38;101255.78;;;17.97;65.93
70229;BME280;57617;51.988;5.854;2022-10-30T04:06:04;101255.50;;;17.93;65.94
70229;BME280;57617;51.988;5.854;2022-10-30T04:08:30;101259.94;;;17.90;66.10
70229;BME280;57617;51.988;5.854;2022-10-30T04:10:56;101260.22;;;17.88;66.37
70229;BME280;57617;51.988;5.854;2022-10-30T04:13:21;101256.63;;;17.88;66.40
70229;BME280;57617;51.988;5.854;2022-10-30T04:15:47;101253.34;;;17.81;66.40
70229;BME280;57617;51.988;5.854;2022-10-30T04:18:13;101260.75;;;17.85;66.44
70229;BME280;57617;51.988;5.854;2022-10-30T04:20:40;101263.22;;;17.87;66.54
70229;BME280;57617;51.988;5.854;2022-10-30T04:23:08;101268.47;;;17.88;66.40
70229;BME280;57617;51.988;5.854;2022-10-30T04:25:35;101268.47;;;17.88;66.40
70229;BME280;57617;51.988;5.854;2022-10-30T04:28:01;101269.28;;;17.83;66.54
70229;BME280;57617;51.988;5.854;2022-10-30T04:30:26;101261.88;;;17.79;66.46
70229;BME280;57617;51.988;5.854;2022-10-30T04:32:53;101277.53;;;17.78;66.48
70229;BME280;57617;51.988;5.854;2022-10-30T04:35:21;101277.25;;;17.75;66.58
70229;BME280;57617;51.988;5.854;2022-10-30T04:37:57;101285.25;;;17.72;67.35
70229;BME280;57617;51.988;5.854;2022-10-30T04:40:24;101283.88;;;17.69;66.91
70229;BME280;57617;51.988;5.854;2022-10-30T04:42:51;101279.47;;;17.68;67.00
70229;BME280;57617;51.988;5.854;2022-10-30T04:45:17;101266.84;;;17.67;66.77
70229;BME280;57617;51.988;5.854;2022-10-30T04:47:43;101277.28;;;17.65;66.69
70229;BME280;57617;51.988;5.854;2022-10-30T04:50:09;101270.41;;;17.63;66.86
70229;BME280;57617;51.988;5.854;2022-10-30T04:52:34;101262.16;;;17.63;66.97
70229;BME280;57617;51.988;5.854;2022-10-30T04:55:00;101256.66;;;17.63;66.88
70229;BME280;57617;51.988;5.854;2022-10-30T04:57:26;101256.94;;;17.61;66.98
70229;BME280;57617;51.988;5.854;2022-10-30T04:59:51;101262.72;;;17.60;66.92
70229;BME280;57617;51.988;5.854;2022-10-30T05:02:16;101263.81;;;17.58;66.99
70229;BME280;57617;51.988;5.854;2022-10-30T05:04:43;101249.00;;;17.60;67.06
70229;BME280;57617;51.988;5.854;2022-10-30T05:07:09;101250.63;;;17.61;66.83
70229;BME280;57617;51.988;5.854;2022-10-30T05:09:34;101247.31;;;17.58;66.96
70229;BME280;57617;51.988;5.854;2022-10-30T05:11:59;101248.69;;;17.56;66.93
70229;BME280;57617;51.988;5.854;2022-10-30T05:14:28;101250.38;;;17.52;66.97
70229;BME280;57617;51.988;5.854;2022-10-30T05:16:54;101246.50;;;17.53;67.08
70229;BME280;57617;51.988;5.854;2022-10-30T05:19:19;101240.75;;;17.50;67.09
70229;BME280;57617;51.988;5.854;2022-10-30T05:21:44;101242.13;;;17.47;67.06
70229;BME280;57617;51.988;5.854;2022-10-30T05:24:09;101238.00;;;17.45;66.94
70229;BME280;57617;51.988;5.854;2022-10-30T05:26:35;101241.56;;;17.40;67.17
70229;BME280;57617;51.988;5.854;2022-10-30T05:29:00;101250.38;;;17.42;67.44
70229;BME280;57617;51.988;5.854;2022-10-30T05:31:25;101258.03;;;17.40;67.75
70229;BME280;57617;51.988;5.854;2022-10-30T05:33:50;101258.34;;;17.39;67.37
70229;BME280;57617;51.988;5.854;2022-10-30T05:36:16;101259.69;;;17.36;67.62
70229;BME280;57617;51.988;5.854;2022-10-30T05:38:41;101256.09;;;17.35;67.68
70229;BME280;57617;51.988;5.854;2022-10-30T05:41:06;101252.56;;;17.40;67.49
70229;BME280;57617;51.988;5.854;2022-10-30T05:43:31;101254.72;;;17.38;67.51
70229;BME280;57617;51.988;5.854;2022-10-30T05:45:57;101257.19;;;17.34;67.62
70229;BME280;57617;51.988;5.854;2022-10-30T05:48:22;101236.03;;;17.20;67.83
70229;BME280;57617;51.988;5.854;2022-10-30T05:50:47;101258.56;;;17.27;67.92
70229;BME280;57617;51.988;5.854;2022-10-30T05:53:13;101265.44;;;17.24;67.78
70229;BME280;57617;51.988;5.854;2022-10-30T05:55:38;101261.03;;;17.23;67.89
70229;BME280;57617;51.988;5.854;2022-10-30T05:58:05;101256.94;;;17.21;68.00
70229;BME280;57617;51.988;5.854;2022-10-30T06:00:34;101263.50;;;17.20;67.97
70229;BME280;57617;51.988;5.854;2022-10-30T06:03:04;101275.31;;;17.15;68.25
70229;BME280;57617;51.988;5.854;2022-10-30T06:05:31;101267.06;;;17.10;68.37
70229;BME280;57617;51.988;5.854;2022-10-30T06:07:57;101267.31;;;17.09;68.33
70229;BME280;57617;51.988;5.854;2022-10-30T06:10:23;101271.72;;;17.05;68.30
70229;BME280;57617;51.988;5.854;2022-10-30T06:12:56;101280.50;;;17.07;68.53
70229;BME280;57617;51.988;5.854;2022-10-30T06:15:22;101278.03;;;17.05;68.44
70229;BME280;57617;51.988;5.854;2022-10-30T06:17:48;101272.00;;;17.03;68.39
70229;BME280;57617;51.988;5.854;2022-10-30T06:20:14;101266.78;;;17.07;68.30
70229;BME280;57617;51.988;5.854;2022-10-30T06:22:40;101265.69;;;17.08;68.37
70229;BME280;57617;51.988;5.854;2022-10-30T06:25:05;101262.09;;;17.07;68.50
70229;BME280;57617;51.988;5.854;2022-10-30T06:27:33;101262.66;;;17.09;68.50
70229;BME280;57617;51.988;5.854;2022-10-30T06:29:59;101257.72;;;17.11;68.52
70229;BME280;57617;51.988;5.854;2022-10-30T06:32:24;101272.00;;;17.13;68.65
70229;BME280;57617;51.988;5.854;2022-10-30T06:34:49;101274.19;;;17.11;68.61
70229;BME280;57617;51.988;5.854;2022-10-30T06:37:15;101269.81;;;17.10;68.75
70229;BME280;57617;51.988;5.854;2022-10-30T06:39:40;101269.81;;;17.10;68.55
70229;BME280;57617;51.988;5.854;2022-10-30T06:42:05;101273.66;;;17.09;68.58
70229;BME280;57617;51.988;5.854;2022-10-30T06:44:30;101268.97;;;17.10;68.69
70229;BME280;57617;51.988;5.854;2022-10-30T06:46:56;101264.31;;;17.10;68.75
70229;BME280;57617;51.988;5.854;2022-10-30T06:49:21;101264.31;;;17.10;68.67
70229;BME280;57617;51.988;5.854;2022-10-30T06:51:47;101263.47;;;17.10;68.69
70229;BME280;57617;51.988;5.854;2022-10-30T06:54:13;101231.91;;;16.98;68.67
70229;BME280;57617;51.988;5.854;2022-10-30T06:56:38;101247.56;;;17.12;68.69
70229;BME280;57617;51.988;5.854;2022-10-30T06:59:04;101243.47;;;17.14;68.47
70229;BME280;57617;51.988;5.854;2022-10-30T07:01:29;101242.91;;;17.17;68.13
70229;BME280;57617;51.988;5.854;2022-10-30T07:03:54;101247.00;;;17.20;68.40
70229;BME280;57617;51.988;5.854;2022-10-30T07:06:20;101245.09;;;17.20;68.60
70229;BME280;57617;51.988;5.854;2022-10-30T07:08:45;101248.13;;;17.19;68.52
70229;BME280;57617;51.988;5.854;2022-10-30T07:11:11;101247.00;;;17.20;68.61
70229;BME280;57617;51.988;5.854;2022-10-30T07:13:36;101254.19;;;17.21;68.77
70229;BME280;57617;51.988;5.854;2022-10-30T07:16:01;101247.59;;;17.22;68.91
70229;BME280;57617;51.988;5.854;2022-10-30T07:18:26;101255.56;;;17.23;68.56
70229;BME280;57617;51.988;5.854;2022-10-30T07:20:55;101252.25;;;17.26;68.85
70229;BME280;57617;51.988;5.854;2022-10-30T07:23:20;101254.72;;;17.28;68.77
70229;BME280;57617;51.988;5.854;2022-10-30T07:25:46;101257.19;;;17.29;68.72
70229;BME280;57617;51.988;5.854;2022-10-30T07:28:11;101245.94;;;17.31;68.64
70229;BME280;57617;51.988;5.854;2022-10-30T07:30:36;101247.03;;;17.35;68.66
70229;BME280;57617;51.988;5.854;2022-10-30T07:33:04;101250.09;;;17.39;68.64
70229;BME280;57617;51.988;5.854;2022-10-30T07:35:31;101252.84;;;17.44;68.64
70229;BME280;57617;51.988;5.854;2022-10-30T07:38:02;101261.09;;;17.49;68.66
70229;BME280;57617;51.988;5.854;2022-10-30T07:40:28;101258.88;;;17.51;68.60
70229;BME280;57617;51.988;5.854;2022-10-30T07:43:00;101266.28;;;17.60;68.65
70229;BME280;57617;51.988;5.854;2022-10-30T07:45:28;101252.28;;;17.57;68.66
70229;BME280;57617;51.988;5.854;2022-10-30T07:47:54;101264.38;;;17.61;68.75
70229;BME280;57617;51.988;5.854;2022-10-30T07:50:21;101260.53;;;17.62;68.93
70229;BME280;57617;51.988;5.854;2022-10-30T07:52:46;101252.28;;;17.67;68.92
70229;BME280;57617;51.988;5.854;2022-10-30T07:55:12;101251.72;;;17.70;68.66
70229;BME280;57617;51.988;5.854;2022-10-30T07:57:38;101250.63;;;17.76;68.89
70229;BME280;57617;51.988;5.854;2022-10-30T08:00:06;101250.03;;;17.78;68.63
70229;BME280;57617;51.988;5.854;2022-10-30T08:02:31;101251.41;;;17.76;68.53
70229;BME280;57617;51.988;5.854;2022-10-30T08:04:57;101250.03;;;17.78;68.86
70229;BME280;57617;51.988;5.854;2022-10-30T08:07:22;101253.88;;;17.88;68.70
70229;BME280;57617;51.988;5.854;2022-10-30T08:09:47;101254.97;;;17.92;68.74
70229;BME280;57617;51.988;5.854;2022-10-30T08:12:13;101252.50;;;17.95;68.73
70229;BME280;57617;51.988;5.854;2022-10-30T08:14:39;101244.25;;;17.95;68.75
70229;BME280;57617;51.988;5.854;2022-10-30T08:17:04;101251.63;;;18.04;68.57
70229;BME280;57617;51.988;5.854;2022-10-30T08:19:31;101248.59;;;18.11;68.16
70229;BME280;57617;51.988;5.854;2022-10-30T08:21:57;101249.94;;;18.18;68.54
70229;BME280;57617;51.988;5.854;2022-10-30T08:24:22;101248.03;;;18.24;68.16
70229;BME280;57617;51.988;5.854;2022-10-30T08:26:50;101238.63;;;18.30;68.07
70229;BME280;57617;51.988;5.854;2022-10-30T08:29:16;101248.81;;;18.35;67.93
70229;BME280;57617;51.988;5.854;2022-10-30T08:31:41;101251.56;;;18.40;67.97
70229;BME280;57617;51.988;5.854;2022-10-30T08:34:07;101258.97;;;18.44;67.78
70229;BME280;57617;51.988;5.854;2022-10-30T08:36:33;101253.47;;;18.49;67.56
70229;BME280;57617;51.988;5.854;2022-10-30T08:38:58;101241.06;;;18.52;67.52
70229;BME280;57617;51.988;5.854;2022-10-30T08:41:24;101238.28;;;18.57;67.39
70229;BME280;57617;51.988;5.854;2022-10-30T08:43:49;101245.66;;;18.66;67.30
70229;BME280;57617;51.988;5.854;2022-10-30T08:46:14;101240.69;;;18.68;67.34
70229;BME280;57617;51.988;5.854;2022-10-30T08:48:39;101237.94;;;18.63;67.61
70229;BME280;57617;51.988;5.854;2022-10-30T08:51:05;101234.94;;;18.65;67.77
70229;BME280;57617;51.988;5.854;2022-10-30T08:53:31;101226.09;;;18.73;67.28
70229;BME280;57617;51.988;5.854;2022-10-30T08:55:56;101232.06;;;18.85;66.89
70229;BME280;57617;51.988;5.854;2022-10-30T08:58:22;101227.63;;;18.89;66.84
70229;BME280;57617;51.988;5.854;2022-10-30T09:00:47;101240.59;;;18.83;67.13
70229;BME280;57617;51.988;5.854;2022-10-30T09:03:12;101244.47;;;18.82;67.14
70229;BME280;57617;51.988;5.854;2022-10-30T09:05:37;101250.50;;;18.84;67.04
70229;BME280;57617;51.988;5.854;2022-10-30T09:08:03;101248.56;;;18.85;66.88
70229;BME280;57617;51.988;5.854;2022-10-30T09:10:28;101245.25;;;18.88;66.90
70229;BME280;57617;51.988;5.854;2022-10-30T09:12:55;101243.28;;;18.93;66.59
70229;BME280;57617;51.988;5.854;2022-10-30T09:15:21;101240.78;;;18.97;66.27
70229;BME280;57617;51.988;5.854;2022-10-30T09:17:47;101243.22;;;19.03;66.82
70229;BME280;57617;51.988;5.854;2022-10-30T09:20:12;101234.91;;;19.08;66.65
70229;BME280;57617;51.988;5.854;2022-10-30T09:22:40;101236.53;;;19.14;66.14
70229;BME280;57617;51.988;5.854;2022-10-30T09:25:06;101232.88;;;19.29;66.01
70229;BME280;57617;51.988;5.854;2022-10-30T09:27:36;101246.53;;;19.44;65.49
70229;BME280;57617;51.988;5.854;2022-10-30T09:30:02;101238.56;;;19.42;65.77
70229;BME280;57617;51.988;5.854;2022-10-30T09:32:27;101242.38;;;19.46;65.98
70229;BME280;57617;51.988;5.854;2022-10-30T09:34:52;101231.50;;;19.60;65.46
70229;BME280;57617;51.988;5.854;2022-10-30T09:37:18;101241.97;;;19.58;65.69
70229;BME280;57617;51.988;5.854;2022-10-30T09:39:43;101238.06;;;19.64;65.64
70229;BME280;57617;51.988;5.854;2022-10-30T09:45:01;101236.88;;;19.75;65.13
70229;BME280;57617;51.988;5.854;2022-10-30T09:50:53;101233.19;;;19.84;64.77
70229;BME280;57617;51.988;5.854;2022-10-30T09:53:26;101227.09;;;19.87;64.86
70229;BME280;57617;51.988;5.854;2022-10-30T09:56:05;101238.06;;;19.92;64.72
70229;BME280;57617;51.988;5.854;2022-10-30T10:01:33;101219.84;;;19.91;64.80
70229;BME280;57617;51.988;5.854;2022-10-30T10:06:42;101238.97;;;20.11;64.75
70229;BME280;57617;51.988;5.854;2022-10-30T10:09:17;101235.03;;;20.17;64.37
70229;BME280;57617;51.988;5.854;2022-10-30T10:11:53;101239.97;;;20.20;64.17
70229;BME280;57617;51.988;5.854;2022-10-30T10:14:27;101246.34;;;20.21;64.03
70229;BME280;57617;51.988;5.854;2022-10-30T10:16:55;101258.41;;;20.25;64.32
70229;BME280;57617;51.988;5.854;2022-10-30T10:19:36;101263.28;;;20.33;63.55
70229;BME280;57617;51.988;5.854;2022-10-30T10:22:29;101279.31;;;20.31;64.17
70229;BME280;57617;51.988;5.854;2022-10-30T10:24:51;101282.03;;;20.36;64.05
70229;BME280;57617;51.988;5.854;2022-10-30T10:30:16;101251.69;;;20.36;63.93
70229;BME280;57617;51.988;5.854;2022-10-30T10:33:13;101270.88;;;20.46;63.50
70229;BME280;57617;51.988;5.854;2022-10-30T10:39:38;101270.88;;;20.46;63.15
70229;BME280;57617;51.988;5.854;2022-10-30T10:41:53;101262.28;;;20.47;63.20
70229;BME280;57617;51.988;5.854;2022-10-30T10:50:48;101253.13;;;20.52;63.51
70229;BME280;57617;51.988;5.854;2022-10-30T10:53:26;101252.50;;;20.55;63.10
70229;BME280;57617;51.988;5.854;2022-10-30T10:55:57;101246.13;;;20.59;63.30
70229;BME280;57617;51.988;5.854;2022-10-30T10:58:31;101249.63;;;20.65;62.98
70229;BME280;57617;51.988;5.854;2022-10-30T11:00:58;101246.56;;;20.66;62.95
70229;BME280;57617;51.988;5.854;2022-10-30T11:03:33;101240.97;;;20.71;63.02
70229;BME280;57617;51.988;5.854;2022-10-30T11:06:18;101241.13;;;20.80;62.08
70229;BME280;57617;51.988;5.854;2022-10-30T11:08:46;101222.03;;;20.83;62.80
70229;BME280;57617;51.988;5.854;2022-10-30T11:11:11;101221.69;;;20.90;62.79
70229;BME280;57617;51.988;5.854;2022-10-30T11:13:40;101217.44;;;20.97;62.85
70229;BME280;57617;51.988;5.854;2022-10-30T11:16:34;101222.59;;;21.04;62.46
70229;BME280;57617;51.988;5.854;2022-10-30T11:19:03;101230.25;;;21.07;62.59
70229;BME280;57617;51.988;5.854;2022-10-30T11:21:34;101226.06;;;21.09;62.54
70229;BME280;57617;51.988;5.854;2022-10-30T11:24:02;101231.00;;;21.12;62.38
70229;BME280;57617;51.988;5.854;2022-10-30T11:26:30;101230.09;;;21.17;62.39
70229;BME280;57617;51.988;5.854;2022-10-30T11:31:32;101221.72;;;21.22;62.24
70229;BME280;57617;51.988;5.854;2022-10-30T11:34:22;101228.31;;;21.26;62.13
70229;BME280;57617;51.988;5.854;2022-10-30T11:36:50;101210.00;;;21.30;62.33
70229;BME280;57617;51.988;5.854;2022-10-30T11:39:26;101216.25;;;21.35;62.13
70229;BME280;57617;51.988;5.854;2022-10-30T11:42:15;101216.41;;;21.44;61.37
70229;BME280;57617;51.988;5.854;2022-10-30T11:44:47;101217.00;;;21.41;61.65
70229;BME280;57617;51.988;5.854;2022-10-30T11:47:16;101217.00;;;21.41;61.67
70229;BME280;57617;51.988;5.854;2022-10-30T11:52:09;101207.41;;;21.52;61.14
70229;BME280;57617;51.988;5.854;2022-10-30T11:54:39;101197.28;;;21.61;60.88
70229;BME280;57617;51.988;5.854;2022-10-30T11:57:31;101193.88;;;21.69;60.40
70229;BME280;57617;51.988;5.854;2022-10-30T11:59:57;101192.09;;;21.73;61.05
70229;BME280;57617;51.988;5.854;2022-10-30T12:02:28;101196.53;;;21.74;61.21
70229;BME280;57617;51.988;5.854;2022-10-30T12:04:55;101192.09;;;21.73;60.85
70229;BME280;57617;51.988;5.854;2022-10-30T12:07:31;101191.50;;;21.76;60.55
70229;BME280;57617;51.988;5.854;2022-10-30T12:09:57;101193.44;;;21.75;60.57
70229;BME280;57617;51.988;5.854;2022-10-30T12:12:26;101194.06;;;21.72;60.63
70229;BME280;57617;51.988;5.854;2022-10-30T12:14:52;101196.31;;;21.70;60.66
70229;BME280;57617;51.988;5.854;2022-10-30T12:17:18;101192.75;;;21.70;60.59
70229;BME280;57617;51.988;5.854;2022-10-30T12:19:46;101194.38;;;21.71;60.71
70229;BME280;57617;51.988;5.854;2022-10-30T12:22:23;101193.78;;;21.74;60.67
70229;BME280;57617;51.988;5.854;2022-10-30T12:24:49;101193.44;;;21.75;60.69
70229;BME280;57617;51.988;5.854;2022-10-30T12:27:15;101204.22;;;21.77;60.52
70229;BME280;57617;51.988;5.854;2022-10-30T12:29:58;101191.22;;;21.77;60.74
70229;BME280;57617;51.988;5.854;2022-10-30T12:32:37;101198.88;;;21.80;60.31
70229;BME280;57617;51.988;5.854;2022-10-30T12:35:15;101191.91;;;21.83;60.12
70229;BME280;57617;51.988;5.854;2022-10-30T12:37:42;101193.25;;;21.85;60.66
70229;BME280;57617;51.988;5.854;2022-10-30T12:40:17;101190.69;;;21.89;60.31
70229;BME280;57617;51.988;5.854;2022-10-30T12:42:55;101184.84;;;21.90;59.95
70229;BME280;57617;51.988;5.854;2022-10-30T12:45:31;101173.50;;;21.92;59.74
70229;BME280;57617;51.988;5.854;2022-10-30T12:48:05;101177.88;;;21.93;60.26
70229;BME280;57617;51.988;5.854;2022-10-30T12:50:42;101182.91;;;21.91;60.02
70229;BME280;57617;51.988;5.854;2022-10-30T12:53:31;101170.53;;;21.88;59.78
70229;BME280;57617;51.988;5.854;2022-10-30T12:56:03;101163.66;;;21.86;59.94
70229;BME280;57617;51.988;5.854;2022-10-30T12:58:37;101169.19;;;21.86;59.94
70229;BME280;57617;51.988;5.854;2022-10-30T13:01:31;101176.34;;;21.87;59.40
70229;BME280;57617;51.988;5.854;2022-10-30T13:04:24;101176.66;;;21.85;59.59
70229;BME280;57617;51.988;5.854;2022-10-30T13:07:18;101169.50;;;21.84;59.62
70229;BME280;57617;51.988;5.854;2022-10-30T13:12:38;101159.34;;;21.80;59.66
70229;BME280;57617;51.988;5.854;2022-10-30T13:15:31;101162.41;;;21.78;59.11
70229;BME280;57617;51.988;5.854;2022-10-30T13:17:56;101161.09;;;21.76;59.41
70229;BME280;57617;51.988;5.854;2022-10-30T13:20:24;101167.75;;;21.75;59.32
70229;BME280;57617;51.988;5.854;2022-10-30T13:23:10;101163.03;;;21.75;59.17
70229;BME280;57617;51.988;5.854;2022-10-30T13:26:10;101165.50;;;21.77;59.13
70229;BME280;57617;51.988;5.854;2022-10-30T13:29:03;101161.28;;;21.79;59.04
70229;BME280;57617;51.988;5.854;2022-10-30T13:31:49;101162.22;;;21.88;59.46
70229;BME280;57617;51.988;5.854;2022-10-30T13:34:28;101152.38;;;21.96;59.28
70229;BME280;57617;51.988;5.854;2022-10-30T13:37:02;101147.44;;;22.06;59.55
70229;BME280;57617;51.988;5.854;2022-10-30T13:40:08;101141.50;;;22.13;60.07
70229;BME280;57617;51.988;5.854;2022-10-30T13:48:35;101145.41;;;22.12;60.48
70229;BME280;57617;51.988;5.854;2022-10-30T13:51:33;101140.91;;;22.16;60.05